Time;durP1;ratioP1;P1;durP2;ratioP2;P2;SDS_P1;SDS_P2;PMS_P1;PMS_P2;Temp;Humidity;BMP_temperature;BMP_pressure;BME280_temperature;BME280_humidity;BME280_pressure;Samples;Min_cycle;Max_cycle;Signal;HPM_P1;HPM_P2
2023/09/06 00:00:45;;;;;;;8.73;5.63;;;19.60;74.60;;;;;;5088127;28;20204;-61
2023/09/06 00:03:13;;;;;;;10.00;4.60;;;19.60;74.80;;;;;;5085922;28;20710;-61
2023/09/06 00:05:44;;;;;;;7.33;5.20;;;19.60;75.20;;;;;;5091325;28;20198;-61
2023/09/06 00:08:14;;;;;;;9.90;4.93;;;19.60;75.50;;;;;;5091205;28;20200;-61
2023/09/06 00:10:43;;;;;;;8.13;4.80;;;19.60;75.60;;;;;;5092642;28;20273;-61
2023/09/06 00:13:12;;;;;;;7.87;5.07;;;19.50;75.70;;;;;;5098102;28;20207;-61
2023/09/06 00:15:40;;;;;;;6.57;5.10;;;19.50;76.00;;;;;;5095523;28;20212;-61
2023/09/06 00:18:07;;;;;;;11.50;4.67;;;19.40;76.40;;;;;;5097509;28;20333;-61
2023/09/06 00:20:36;;;;;;;8.43;5.37;;;19.50;76.80;;;;;;5097575;28;20370;-61
2023/09/06 00:23:13;;;;;;;7.83;5.50;;;19.40;77.00;;;;;;5096452;28;20214;-61
2023/09/06 00:25:40;;;;;;;9.53;5.20;;;19.40;77.10;;;;;;5092818;28;20208;-61
2023/09/06 00:28:07;;;;;;;9.40;5.47;;;19.30;77.30;;;;;;5094637;28;20622;-61
2023/09/06 00:30:35;;;;;;;8.60;5.07;;;19.30;77.40;;;;;;5091012;28;20625;-61
2023/09/06 00:33:07;;;;;;;8.00;5.27;;;19.30;77.60;;;;;;5090895;28;20234;-61
2023/09/06 00:35:34;;;;;;;9.03;5.13;;;19.20;77.70;;;;;;5093387;28;20255;-61
2023/09/06 00:38:01;;;;;;;8.30;5.80;;;19.20;77.90;;;;;;5096553;28;20297;-61
2023/09/06 00:40:29;;;;;;;9.43;5.63;;;19.20;78.10;;;;;;5096508;28;20575;-61
2023/09/06 00:43:01;;;;;;;9.07;5.33;;;19.20;78.30;;;;;;5093782;28;20217;-61
2023/09/06 00:45:45;;;;;;;6.53;5.27;;;19.20;78.50;;;;;;5092411;28;20216;-61
2023/09/06 00:48:19;;;;;;;8.07;5.67;;;19.20;78.60;;;;;;5086520;28;20203;-61
2023/09/06 00:50:51;;;;;;;9.97;6.57;;;19.20;78.50;;;;;;5087305;28;20269;-61
2023/09/06 00:53:20;;;;;;;8.73;5.70;;;19.20;78.50;;;;;;5088770;28;20207;-61
2023/09/06 00:55:48;;;;;;;5.63;5.00;;;19.20;78.70;;;;;;5091500;28;20633;-61
2023/09/06 00:58:17;;;;;;;10.07;6.43;;;19.10;78.60;;;;;;5100003;28;20231;-60
2023/09/06 01:00:46;;;;;;;7.07;6.30;;;19.20;78.80;;;;;;5099311;28;20206;-60
2023/09/06 01:03:14;;;;;;;10.27;6.73;;;19.10;78.70;;;;;;5097943;28;20209;-61
2023/09/06 01:06:02;;;;;;;6.93;5.60;;;19.10;78.70;;;;;;5092012;28;20503;-61
2023/09/06 01:08:40;;;;;;;8.43;6.43;;;19.10;78.80;;;;;;5094753;28;20280;-60
2023/09/06 01:11:28;;;;;;;10.73;6.07;;;19.00;78.70;;;;;;5095756;28;20225;-62
2023/09/06 01:14:02;;;;;;;7.53;5.97;;;19.00;78.80;;;;;;5094079;28;20205;-61
2023/09/06 01:16:42;;;;;;;8.53;5.77;;;19.00;79.10;;;;;;5096225;28;20216;-61
2023/09/06 01:19:12;;;;;;;10.00;6.03;;;19.00;79.50;;;;;;5094828;28;20291;-61
2023/09/06 01:21:47;;;;;;;9.77;6.10;;;19.00;79.50;;;;;;5088845;28;20646;-61
2023/09/06 01:24:16;;;;;;;8.27;6.20;;;18.90;79.40;;;;;;5089696;28;20244;-61
2023/09/06 01:26:43;;;;;;;6.77;5.63;;;18.90;79.60;;;;;;5094921;28;20678;-61
2023/09/06 01:29:11;;;;;;;10.20;5.90;;;18.90;80.00;;;;;;5094960;28;20227;-61
2023/09/06 01:31:40;;;;;;;10.93;6.20;;;18.80;80.30;;;;;;5099604;28;20729;-61
2023/09/06 01:34:07;;;;;;;6.80;5.97;;;18.90;80.50;;;;;;5088517;28;20678;-61
2023/09/06 01:36:34;;;;;;;8.13;6.40;;;18.80;80.50;;;;;;5089990;28;20208;-61
2023/09/06 01:39:01;;;;;;;9.10;5.77;;;18.80;80.70;;;;;;5087480;28;20219;-61
2023/09/06 01:41:28;;;;;;;10.53;6.90;;;18.80;80.70;;;;;;5092163;28;20666;-61
2023/09/06 01:43:55;;;;;;;7.97;5.93;;;18.80;80.70;;;;;;5102026;28;20200;-61
2023/09/06 01:46:23;;;;;;;7.30;6.33;;;18.80;80.90;;;;;;5101549;28;20197;-60
2023/09/06 01:48:50;;;;;;;8.67;6.77;;;18.80;81.10;;;;;;5100595;27;20188;-60
2023/09/06 01:51:17;;;;;;;8.43;6.30;;;18.70;81.10;;;;;;5082316;28;20261;-60
2023/09/06 01:53:44;;;;;;;9.87;6.20;;;18.70;81.10;;;;;;5098049;28;20200;-60
2023/09/06 01:56:11;;;;;;;12.13;7.33;;;18.80;81.30;;;;;;5100032;28;20196;-60
2023/09/06 01:58:40;;;;;;;9.97;6.97;;;18.70;81.30;;;;;;5100764;28;20228;-60
2023/09/06 02:01:09;;;;;;;11.60;7.50;;;18.70;81.30;;;;;;5100846;28;20191;-61
2023/09/06 02:03:37;;;;;;;11.50;7.60;;;18.70;81.30;;;;;;5095826;28;20255;-61
2023/09/06 02:06:04;;;;;;;9.70;7.03;;;18.60;81.50;;;;;;5093551;28;20241;-61
2023/09/06 02:08:32;;;;;;;14.03;7.73;;;18.60;81.80;;;;;;5081918;28;20196;-61
2023/09/06 02:10:59;;;;;;;9.97;6.83;;;18.60;81.80;;;;;;5093769;28;20196;-61
2023/09/06 02:13:26;;;;;;;9.23;7.27;;;18.60;81.80;;;;;;5092485;28;20234;-61
2023/09/06 02:15:53;;;;;;;10.03;6.57;;;18.60;81.80;;;;;;5097956;28;20210;-61
2023/09/06 02:18:20;;;;;;;10.63;7.13;;;18.60;81.90;;;;;;5093782;28;20197;-61
2023/09/06 02:20:49;;;;;;;9.33;7.80;;;18.70;82.00;;;;;;5102370;28;20256;-60
2023/09/06 02:23:16;;;;;;;12.27;7.70;;;18.70;81.80;;;;;;5094095;28;20216;-61
2023/09/06 02:25:45;;;;;;;12.77;8.07;;;18.60;81.70;;;;;;5079829;28;20290;-61
2023/09/06 02:28:14;;;;;;;8.20;7.20;;;18.60;81.80;;;;;;5098989;28;20205;-61
2023/09/06 02:30:41;;;;;;;10.80;7.80;;;18.60;82.00;;;;;;5104149;28;20206;-60
2023/09/06 02:33:11;;;;;;;8.83;7.93;;;18.60;82.10;;;;;;5097966;28;20261;-60
2023/09/06 02:35:41;;;;;;;10.67;8.07;;;18.60;82.20;;;;;;5095435;28;20621;-61
2023/09/06 02:38:09;;;;;;;14.17;8.73;;;18.60;82.30;;;;;;5096891;28;20221;-61
2023/09/06 02:40:40;;;;;;;8.47;7.57;;;18.50;82.10;;;;;;5098791;28;20521;-61
2023/09/06 02:43:10;;;;;;;9.80;8.37;;;18.50;82.20;;;;;;5097745;28;20209;-61
2023/09/06 02:45:38;;;;;;;12.57;8.30;;;18.50;82.30;;;;;;5097632;28;20696;-61
2023/09/06 02:48:07;;;;;;;11.60;7.70;;;18.50;82.20;;;;;;5102272;28;20222;-61
2023/09/06 02:50:34;;;;;;;9.70;8.67;;;18.40;82.30;;;;;;5097514;28;20219;-61
2023/09/06 02:53:03;;;;;;;13.37;8.07;;;18.40;82.50;;;;;;5090864;28;20293;-61
2023/09/06 02:55:35;;;;;;;11.20;8.20;;;18.40;82.60;;;;;;5087201;28;20200;-61
2023/09/06 02:58:04;;;;;;;10.03;9.03;;;18.40;82.60;;;;;;5089501;28;20235;-61
2023/09/06 03:00:35;;;;;;;11.63;8.67;;;18.40;82.50;;;;;;5093016;28;20257;-60
2023/09/06 03:03:06;;;;;;;9.10;8.13;;;18.40;82.30;;;;;;5098255;28;20305;-60
2023/09/06 03:05:41;;;;;;;15.20;9.27;;;18.30;82.40;;;;;;5091095;28;20299;-60
2023/09/06 03:08:13;;;;;;;13.33;8.27;;;18.30;82.60;;;;;;5094941;28;20209;-60
2023/09/06 03:10:41;;;;;;;14.03;8.23;;;18.30;82.80;;;;;;5093947;28;20659;-61
2023/09/06 03:13:09;;;;;;;11.97;8.97;;;18.30;82.80;;;;;;5095385;28;20191;-61
2023/09/06 03:15:43;;;;;;;12.03;8.47;;;18.30;82.70;;;;;;5099254;28;20275;-61
2023/09/06 03:18:11;;;;;;;11.73;8.67;;;18.30;82.40;;;;;;5085000;28;20264;-61
2023/09/06 03:20:45;;;;;;;9.77;8.33;;;18.30;82.20;;;;;;5098705;28;20707;-61
2023/09/06 03:23:21;;;;;;;12.50;8.93;;;18.30;82.00;;;;;;5096017;28;20210;-61
2023/09/06 03:25:54;;;;;;;11.93;8.63;;;18.30;81.90;;;;;;5094849;28;20607;-61
2023/09/06 03:28:25;;;;;;;11.17;9.00;;;18.30;82.00;;;;;;5095590;28;20296;-61
2023/09/06 03:30:53;;;;;;;12.00;8.10;;;18.30;82.10;;;;;;5091183;28;20213;-61
2023/09/06 03:33:20;;;;;;;17.93;8.67;;;18.20;82.00;;;;;;5098517;28;20234;-61
2023/09/06 03:35:48;;;;;;;12.07;8.97;;;18.20;82.50;;;;;;5100692;28;20272;-61
2023/09/06 03:38:17;;;;;;;12.83;9.00;;;18.20;81.80;;;;;;5104709;28;20224;-61
2023/09/06 03:40:45;;;;;;;9.33;8.13;;;18.20;81.60;;;;;;5100288;28;20216;-61
2023/09/06 03:43:15;;;;;;;13.20;9.17;;;18.20;81.70;;;;;;5091259;28;20703;-61
2023/09/06 03:45:44;;;;;;;11.37;8.47;;;18.20;81.70;;;;;;5091701;28;20221;-61
2023/09/06 03:48:12;;;;;;;11.23;7.97;;;18.20;81.80;;;;;;5092621;28;20203;-61
2023/09/06 03:50:40;;;;;;;9.20;7.87;;;18.10;81.90;;;;;;5091594;28;20206;-60
2023/09/06 03:53:07;;;;;;;10.53;8.80;;;18.10;82.00;;;;;;5096025;28;20194;-60
2023/09/06 03:55:34;;;;;;;11.87;8.00;;;18.10;81.90;;;;;;5095063;28;20286;-61
2023/09/06 03:58:07;;;;;;;11.40;7.87;;;18.10;81.70;;;;;;5095475;28;20244;-61
2023/09/06 04:00:39;;;;;;;10.23;7.60;;;18.20;81.80;;;;;;5100115;28;20253;-61
2023/09/06 04:03:12;;;;;;;11.47;7.87;;;18.20;81.80;;;;;;5094061;28;20629;-61
2023/09/06 04:05:45;;;;;;;11.60;8.47;;;18.20;81.80;;;;;;5096822;28;20219;-61
2023/09/06 04:08:17;;;;;;;10.50;8.50;;;18.10;81.90;;;;;;5097023;28;20198;-60
2023/09/06 04:10:49;;;;;;;11.50;8.37;;;18.10;82.10;;;;;;5098278;28;20198;-60
2023/09/06 04:13:17;;;;;;;13.43;8.40;;;18.10;82.20;;;;;;5098596;28;20204;-60
2023/09/06 04:15:45;;;;;;;10.23;8.00;;;18.00;82.40;;;;;;5079065;28;20299;-60
2023/09/06 04:18:12;;;;;;;10.40;8.77;;;18.10;82.60;;;;;;5093191;28;20230;-61
2023/09/06 04:20:46;;;;;;;9.53;8.53;;;18.00;82.60;;;;;;5093990;28;20268;-61
2023/09/06 04:23:16;;;;;;;8.93;7.47;;;18.00;82.60;;;;;;5098866;28;20210;-61
2023/09/06 04:25:51;;;;;;;10.00;7.90;;;18.00;82.60;;;;;;5083670;28;20688;-61
2023/09/06 04:28:27;;;;;;;11.00;7.67;;;18.00;82.60;;;;;;5105619;28;20206;-61
2023/09/06 04:30:58;;;;;;;10.13;8.20;;;17.90;82.60;;;;;;5099968;28;20194;-61
2023/09/06 04:33:30;;;;;;;8.40;7.57;;;17.90;82.80;;;;;;5089774;28;20644;-61
2023/09/06 04:36:18;;;;;;;12.07;8.07;;;17.90;82.90;;;;;;5074340;28;20272;-61
2023/09/06 04:38:48;;;;;;;14.30;8.47;;;17.90;83.00;;;;;;5090877;28;20231;-61
2023/09/06 04:41:15;;;;;;;13.13;7.70;;;17.90;83.10;;;;;;5097513;28;20203;-61
2023/09/06 04:43:49;;;;;;;10.83;7.93;;;17.90;83.20;;;;;;5097665;28;20208;-61
2023/09/06 04:46:16;;;;;;;10.63;7.80;;;17.90;83.10;;;;;;5096849;28;20214;-61
2023/09/06 04:48:47;;;;;;;11.70;7.93;;;17.80;82.90;;;;;;5108606;27;20646;-61
2023/09/06 04:51:14;;;;;;;12.33;8.30;;;17.80;82.90;;;;;;5092339;28;20206;-61
2023/09/06 04:53:43;;;;;;;11.40;7.63;;;17.80;82.70;;;;;;5094563;28;20207;-60
2023/09/06 04:56:12;;;;;;;8.53;7.23;;;17.80;82.50;;;;;;5100908;28;20209;-60
2023/09/06 04:58:46;;;;;;;19.40;8.03;;;17.80;82.50;;;;;;5095905;28;20595;-60
2023/09/06 05:01:14;;;;;;;9.53;7.63;;;17.80;82.50;;;;;;5095382;28;20594;-61
2023/09/06 05:03:41;;;;;;;8.90;7.73;;;17.80;82.30;;;;;;5094939;28;20209;-61
2023/09/06 05:06:08;;;;;;;10.17;8.07;;;17.80;82.10;;;;;;5092773;28;20277;-61
2023/09/06 05:08:35;;;;;;;15.53;7.33;;;17.90;82.00;;;;;;5092430;28;20211;-61
2023/09/06 05:11:14;;;;;;;13.53;7.30;;;17.80;82.10;;;;;;5082883;28;20220;-61
2023/09/06 05:13:43;;;;;;;10.23;7.53;;;17.90;82.30;;;;;;5098481;28;20252;-61
2023/09/06 05:16:11;;;;;;;9.47;7.67;;;17.90;82.30;;;;;;5084940;28;20257;-61
2023/09/06 05:18:39;;;;;;;11.53;7.07;;;17.90;82.40;;;;;;5100913;28;20260;-60
2023/09/06 05:21:06;;;;;;;8.13;6.87;;;17.90;82.50;;;;;;5101173;28;20199;-60
2023/09/06 05:23:36;;;;;;;11.17;7.37;;;18.00;82.70;;;;;;5087618;28;20199;-61
2023/09/06 05:26:03;;;;;;;9.03;6.80;;;18.20;82.40;;;;;;5094752;28;20622;-61
2023/09/06 05:28:42;;;;;;;8.47;7.17;;;18.40;81.80;;;;;;5097202;28;20265;-61
2023/09/06 05:31:10;;;;;;;15.47;7.70;;;18.60;81.20;;;;;;5101871;28;20199;-61
2023/09/06 05:33:39;;;;;;;8.97;7.40;;;18.80;80.50;;;;;;5080126;28;20190;-61
2023/09/06 05:36:08;;;;;;;8.33;6.83;;;18.90;80.00;;;;;;5094437;28;20211;-61
2023/09/06 05:38:36;;;;;;;8.23;6.77;;;18.90;80.00;;;;;;5097461;28;20209;-61
2023/09/06 05:41:04;;;;;;;10.60;6.77;;;19.10;79.80;;;;;;5091996;28;20291;-61
2023/09/06 05:43:36;;;;;;;12.00;7.30;;;19.20;79.50;;;;;;5095775;28;20598;-61
2023/09/06 05:46:03;;;;;;;8.77;6.93;;;19.30;79.20;;;;;;5102585;28;20241;-61
2023/09/06 05:48:50;;;;;;;9.40;7.10;;;19.40;78.80;;;;;;5095103;28;20210;-61
2023/09/06 05:51:18;;;;;;;12.43;7.03;;;19.50;78.00;;;;;;5096649;28;20201;-61
2023/09/06 05:53:47;;;;;;;8.93;7.00;;;19.70;77.30;;;;;;5075759;28;20243;-61
2023/09/06 05:56:15;;;;;;;7.07;6.37;;;19.90;76.90;;;;;;5075819;28;20587;-61
2023/09/06 05:58:42;;;;;;;7.00;6.30;;;20.20;76.50;;;;;;5089928;28;20207;-61
2023/09/06 06:01:11;;;;;;;10.63;6.53;;;20.60;75.40;;;;;;5093408;28;20214;-61
2023/09/06 06:03:38;;;;;;;8.90;6.63;;;21.10;73.70;;;;;;5101394;28;20209;-61
2023/09/06 06:06:10;;;;;;;12.83;6.80;;;21.80;71.80;;;;;;5101585;28;20217;-61
2023/09/06 06:08:38;;;;;;;14.43;7.20;;;22.40;69.70;;;;;;5095818;28;20262;-61
2023/09/06 06:11:05;;;;;;;11.47;6.33;;;22.90;67.70;;;;;;5079003;28;20223;-61
2023/09/06 06:13:33;;;;;;;10.40;6.27;;;23.20;65.90;;;;;;5101016;28;20203;-61
2023/09/06 06:16:01;;;;;;;15.80;6.93;;;23.50;64.40;;;;;;5098036;28;20201;-61
2023/09/06 06:18:27;;;;;;;10.27;6.63;;;23.50;63.80;;;;;;5097381;28;20201;-61
2023/09/06 06:20:55;;;;;;;7.37;6.20;;;23.40;64.20;;;;;;5100096;28;20200;-61
2023/09/06 06:23:22;;;;;;;8.93;6.93;;;23.30;65.00;;;;;;5100989;28;20208;-61
2023/09/06 06:25:49;;;;;;;8.90;6.20;;;23.20;65.90;;;;;;5094866;28;20646;-61
2023/09/06 06:28:16;;;;;;;15.73;6.80;;;23.10;66.60;;;;;;5099829;28;20208;-61
2023/09/06 06:30:43;;;;;;;11.37;7.40;;;22.90;67.20;;;;;;5097061;28;20634;-61
2023/09/06 06:33:10;;;;;;;19.73;7.40;;;22.80;67.50;;;;;;5101961;28;20204;-61
2023/09/06 06:35:38;;;;;;;10.03;6.90;;;22.60;68.10;;;;;;5095998;28;20213;-61
2023/09/06 06:38:05;;;;;;;7.93;6.77;;;22.50;68.40;;;;;;5094809;28;20210;-61
2023/09/06 06:40:36;;;;;;;12.33;6.77;;;22.40;68.90;;;;;;5093057;28;20205;-61
2023/09/06 06:43:04;;;;;;;9.77;7.30;;;22.30;69.50;;;;;;5091680;28;20568;-61
2023/09/06 06:45:30;;;;;;;9.50;7.00;;;22.40;70.20;;;;;;5097696;28;20220;-61
2023/09/06 06:47:57;;;;;;;10.03;7.20;;;22.40;70.50;;;;;;5095871;28;20209;-61
2023/09/06 06:50:25;;;;;;;11.37;7.80;;;22.40;70.70;;;;;;5093616;28;20198;-61
2023/09/06 06:52:52;;;;;;;9.43;6.87;;;22.40;69.90;;;;;;5098912;28;20197;-61
2023/09/06 06:55:19;;;;;;;11.20;7.30;;;22.40;69.90;;;;;;5101884;28;20275;-61
2023/09/06 06:57:47;;;;;;;7.77;6.93;;;22.40;69.90;;;;;;5103863;28;20328;-61
2023/09/06 07:00:17;;;;;;;8.80;6.90;;;22.40;70.00;;;;;;5101253;28;20197;-61
2023/09/06 07:02:45;;;;;;;11.67;6.27;;;22.50;70.00;;;;;;5102533;28;20217;-60
2023/09/06 07:05:12;;;;;;;14.00;6.67;;;22.60;70.10;;;;;;5097582;28;21166;-60
2023/09/06 07:07:40;;;;;;;12.53;6.27;;;22.60;70.20;;;;;;5100045;27;20205;-60
2023/09/06 07:10:07;;;;;;;7.63;6.27;;;22.70;70.00;;;;;;5101110;28;20280;-60
2023/09/06 07:12:35;;;;;;;7.80;6.03;;;22.80;69.90;;;;;;5096571;28;20200;-61
2023/09/06 07:15:03;;;;;;;11.67;6.97;;;22.90;69.70;;;;;;5094137;28;20202;-61
2023/09/06 07:17:30;;;;;;;11.03;6.53;;;23.00;69.40;;;;;;5094487;28;20196;-61
2023/09/06 07:19:58;;;;;;;7.50;6.33;;;23.10;69.30;;;;;;5098841;28;20211;-61
2023/09/06 07:22:26;;;;;;;6.67;6.07;;;23.20;69.10;;;;;;5100331;28;20209;-61
2023/09/06 07:24:53;;;;;;;7.87;6.43;;;23.30;69.00;;;;;;5097939;28;20197;-61
2023/09/06 07:27:21;;;;;;;7.77;5.77;;;23.40;68.90;;;;;;5101064;28;20224;-61
2023/09/06 07:29:48;;;;;;;8.80;6.53;;;23.50;68.60;;;;;;5089976;28;20537;-61
2023/09/06 07:32:15;;;;;;;10.50;6.50;;;23.60;68.20;;;;;;5086732;28;20336;-61
2023/09/06 07:34:42;;;;;;;7.03;5.40;;;23.70;67.80;;;;;;5090895;28;20255;-61
2023/09/06 07:37:10;;;;;;;10.30;5.73;;;23.80;67.40;;;;;;5090032;28;20204;-61
2023/09/06 07:39:37;;;;;;;7.23;5.47;;;23.80;67.20;;;;;;5097011;28;20204;-61
2023/09/06 07:42:05;;;;;;;9.10;5.23;;;24.00;66.70;;;;;;5097873;28;20200;-60
2023/09/06 07:44:32;;;;;;;27.47;6.73;;;24.10;66.70;;;;;;5099960;28;20645;-61
2023/09/06 07:46:59;;;;;;;9.10;5.30;;;24.20;66.10;;;;;;5097314;28;20340;-61
2023/09/06 07:49:30;;;;;;;6.70;4.30;;;24.30;65.00;;;;;;5098050;28;20205;-61
2023/09/06 07:51:57;;;;;;;7.07;4.17;;;24.50;64.80;;;;;;5095687;28;20208;-61
2023/09/06 07:54:24;;;;;;;7.10;4.97;;;24.60;64.60;;;;;;5096419;28;20188;-62
2023/09/06 07:56:52;;;;;;;10.50;4.70;;;24.80;64.50;;;;;;5097505;28;20744;-61
2023/09/06 07:59:22;;;;;;;10.50;5.30;;;25.00;64.20;;;;;;5097784;28;20286;-61
2023/09/06 08:01:49;;;;;;;7.33;4.80;;;25.20;63.30;;;;;;5090449;28;20556;-62
2023/09/06 08:04:19;;;;;;;9.10;5.33;;;25.30;62.40;;;;;;5095649;28;20202;-61
2023/09/06 08:06:46;;;;;;;5.90;5.30;;;25.40;62.00;;;;;;5089558;28;20296;-61
2023/09/06 08:09:14;;;;;;;10.60;6.27;;;25.40;61.70;;;;;;5097701;28;20189;-61
2023/09/06 08:11:41;;;;;;;8.17;5.70;;;25.50;61.20;;;;;;5099470;28;20201;-61
2023/09/06 08:14:08;;;;;;;7.07;5.20;;;25.50;61.60;;;;;;5100889;28;20629;-61
2023/09/06 08:16:35;;;;;;;8.90;5.77;;;25.60;62.00;;;;;;5102071;27;20256;-61
2023/09/06 08:19:03;;;;;;;20.77;5.27;;;25.80;61.40;;;;;;5094210;28;20214;-61
2023/09/06 08:21:30;;;;;;;7.73;5.10;;;25.90;61.00;;;;;;5090019;28;20206;-61
2023/09/06 08:23:57;;;;;;;6.27;5.50;;;26.00;60.70;;;;;;5089283;28;20210;-61
2023/09/06 08:26:24;;;;;;;6.43;5.40;;;26.10;60.50;;;;;;5099379;28;20590;-61
2023/09/06 08:28:52;;;;;;;4.37;3.90;;;26.20;60.60;;;;;;5102274;28;20204;-61
2023/09/06 08:31:19;;;;;;;5.70;4.63;;;26.40;60.50;;;;;;5100838;28;20186;-61
2023/09/06 08:33:46;;;;;;;7.00;4.10;;;26.60;59.80;;;;;;5098311;28;20239;-61
2023/09/06 08:36:13;;;;;;;4.67;3.67;;;26.70;59.10;;;;;;5098378;28;20216;-61
2023/09/06 08:38:40;;;;;;;5.33;3.70;;;26.80;58.40;;;;;;5092722;28;20208;-61
2023/09/06 08:41:08;;;;;;;7.50;3.50;;;26.90;58.50;;;;;;5100490;28;20197;-61
2023/09/06 08:43:42;;;;;;;5.90;3.87;;;27.00;58.10;;;;;;5102695;28;20205;-61
2023/09/06 08:46:27;;;;;;;5.33;3.50;;;27.10;57.50;;;;;;5092801;28;20223;-61
2023/09/06 08:48:55;;;;;;;4.37;3.80;;;27.10;57.10;;;;;;5090767;28;20201;-61
2023/09/06 08:51:24;;;;;;;6.83;4.00;;;27.20;56.60;;;;;;5090921;28;20582;-61
2023/09/06 08:53:52;;;;;;;6.53;3.97;;;27.20;56.90;;;;;;5088603;28;20257;-61
2023/09/06 08:56:20;;;;;;;5.70;3.83;;;27.30;57.00;;;;;;5092905;28;20275;-62
2023/09/06 08:58:47;;;;;;;4.40;4.00;;;27.40;56.70;;;;;;5097937;28;20225;-61
2023/09/06 09:01:15;;;;;;;8.13;3.83;;;27.50;55.90;;;;;;5097925;28;20203;-60
2023/09/06 09:03:43;;;;;;;6.60;3.30;;;27.50;56.20;;;;;;5091495;28;20204;-61
2023/09/06 09:06:10;;;;;;;4.67;3.60;;;27.60;56.40;;;;;;5098081;28;20216;-61
2023/09/06 09:08:37;;;;;;;4.23;3.80;;;27.70;55.70;;;;;;5102478;28;20196;-61
2023/09/06 09:11:13;;;;;;;6.67;3.97;;;27.70;56.10;;;;;;5098035;28;20234;-61
2023/09/06 09:13:41;;;;;;;6.60;4.23;;;27.80;56.50;;;;;;5100916;28;20201;-60
2023/09/06 09:16:10;;;;;;;4.20;3.80;;;27.90;56.20;;;;;;5099539;28;20224;-60
2023/09/06 09:18:38;;;;;;;6.00;3.57;;;28.10;55.90;;;;;;5100395;28;20212;-60
2023/09/06 09:21:11;;;;;;;3.87;3.50;;;28.20;55.20;;;;;;5097399;28;20584;-60
2023/09/06 09:23:54;;;;;;;3.90;3.60;;;28.30;54.60;;;;;;5093083;28;20203;-60
2023/09/06 09:26:22;;;;;;;4.70;3.57;;;28.30;53.90;;;;;;5098574;28;20742;-60
2023/09/06 09:28:49;;;;;;;4.43;3.13;;;28.40;53.70;;;;;;5097298;28;20199;-61
2023/09/06 09:31:16;;;;;;;5.53;3.20;;;28.40;54.20;;;;;;5100123;28;20282;-61
2023/09/06 09:33:49;;;;;;;6.20;3.90;;;28.60;54.10;;;;;;5102733;28;20203;-62
2023/09/06 09:36:17;;;;;;;6.30;4.17;;;28.60;54.00;;;;;;5091945;28;20196;-61
2023/09/06 09:38:51;;;;;;;7.33;3.70;;;28.70;53.40;;;;;;5089414;28;20193;-61
2023/09/06 09:41:19;;;;;;;3.97;3.57;;;28.70;53.20;;;;;;5085833;28;20190;-61
2023/09/06 09:43:46;;;;;;;6.43;3.40;;;28.70;53.00;;;;;;5088601;28;20256;-61
2023/09/06 09:46:28;;;;;;;5.03;3.30;;;28.60;53.60;;;;;;5091223;28;20217;-61
2023/09/06 09:48:59;;;;;;;3.07;2.70;;;28.60;52.90;;;;;;5090582;28;20215;-61
2023/09/06 09:51:27;;;;;;;4.10;3.60;;;28.70;53.30;;;;;;5095905;28;20201;-61
2023/09/06 09:53:55;;;;;;;7.77;3.67;;;28.70;52.90;;;;;;5093053;28;20201;-61
2023/09/06 09:56:23;;;;;;;6.50;3.10;;;28.80;52.60;;;;;;5101318;28;20534;-61
2023/09/06 09:58:52;;;;;;;4.30;2.77;;;28.80;52.30;;;;;;5096762;28;20201;-61
2023/09/06 10:01:20;;;;;;;3.53;2.53;;;28.80;52.10;;;;;;5103075;28;20222;-62
2023/09/06 10:03:49;;;;;;;3.70;2.53;;;29.00;51.90;;;;;;5105491;28;20220;-61
2023/09/06 10:06:17;;;;;;;3.07;2.50;;;29.10;50.80;;;;;;5101420;28;20204;-62
2023/09/06 10:08:45;;;;;;;3.13;2.70;;;29.20;50.60;;;;;;5099955;28;20203;-62
2023/09/06 10:11:15;;;;;;;2.87;2.63;;;29.20;50.00;;;;;;5100087;28;20193;-62
2023/09/06 10:13:43;;;;;;;2.93;2.40;;;29.30;49.90;;;;;;5097825;28;20203;-62
2023/09/06 10:16:11;;;;;;;2.83;2.57;;;29.40;49.70;;;;;;5099111;28;20203;-62
2023/09/06 10:18:38;;;;;;;3.70;2.67;;;29.50;50.30;;;;;;5100303;28;20301;-62
2023/09/06 10:21:06;;;;;;;2.90;2.67;;;29.60;50.50;;;;;;5099284;28;20602;-62
2023/09/06 10:23:43;;;;;;;4.03;2.43;;;29.60;49.80;;;;;;5107297;28;20206;-62
2023/09/06 10:26:10;;;;;;;3.50;2.60;;;29.80;49.40;;;;;;5091300;28;20203;-62
2023/09/06 10:28:37;;;;;;;2.30;2.10;;;29.80;49.40;;;;;;5087820;28;20194;-62
2023/09/06 10:31:07;;;;;;;2.30;2.10;;;30.00;50.50;;;;;;5092136;28;20203;-62
2023/09/06 10:33:35;;;;;;;2.97;2.70;;;30.10;49.20;;;;;;5095823;28;20194;-61
2023/09/06 10:36:08;;;;;;;4.07;2.60;;;30.30;49.20;;;;;;5092751;28;20258;-62
2023/09/06 10:38:58;;;;;;;3.00;2.70;;;30.30;48.40;;;;;;5093964;28;20197;-62
2023/09/06 10:41:29;;;;;;;2.90;2.30;;;30.40;48.70;;;;;;5101809;28;20198;-61
2023/09/06 10:44:03;;;;;;;3.20;2.83;;;30.40;48.00;;;;;;5102474;28;20194;-61
2023/09/06 10:46:34;;;;;;;3.03;2.73;;;30.40;47.90;;;;;;5097838;28;20228;-62
2023/09/06 10:49:16;;;;;;;3.77;2.30;;;30.40;48.20;;;;;;5101775;28;20197;-60
2023/09/06 10:52:04;;;;;;;2.80;2.37;;;30.50;48.40;;;;;;5100961;28;20215;-62
2023/09/06 10:54:43;;;;;;;3.10;2.77;;;30.50;46.90;;;;;;5099688;28;20196;-62
2023/09/06 10:57:13;;;;;;;3.17;2.57;;;30.50;47.20;;;;;;5101938;28;20697;-61
2023/09/06 10:59:44;;;;;;;3.00;2.70;;;30.50;47.40;;;;;;5096779;28;20212;-61
2023/09/06 11:02:23;;;;;;;2.23;2.13;;;30.60;47.30;;;;;;5090978;28;20193;-62
2023/09/06 11:05:14;;;;;;;5.10;2.60;;;30.60;47.60;;;;;;5093255;28;20205;-62
2023/09/06 11:07:44;;;;;;;2.70;2.40;;;30.60;47.50;;;;;;5098463;28;20729;-61
2023/09/06 11:10:24;;;;;;;4.37;2.47;;;30.70;46.70;;;;;;5102672;28;20257;-61
2023/09/06 11:12:56;;;;;;;2.40;2.20;;;30.60;46.50;;;;;;5104732;28;20226;-59
2023/09/06 11:15:24;;;;;;;2.13;2.03;;;30.70;46.10;;;;;;5106687;28;20196;-62
2023/09/06 11:17:56;;;;;;;3.43;2.23;;;30.60;46.00;;;;;;5092341;28;20270;-61
2023/09/06 11:20:23;;;;;;;2.87;2.40;;;30.60;46.00;;;;;;5089458;28;20205;-61
2023/09/06 11:22:58;;;;;;;2.03;1.93;;;30.60;46.10;;;;;;5090185;28;20289;-61
2023/09/06 11:25:28;;;;;;;2.43;2.23;;;30.50;46.40;;;;;;5100193;28;20714;-61
2023/09/06 11:28:00;;;;;;;2.97;2.67;;;30.60;46.30;;;;;;5102923;28;20609;-61
2023/09/06 11:30:31;;;;;;;2.80;2.57;;;30.50;45.50;;;;;;5097894;28;20212;-62
2023/09/06 11:32:58;;;;;;;6.23;2.67;;;30.50;45.70;;;;;;5101260;28;20201;-61
2023/09/06 11:35:38;;;;;;;3.63;2.37;;;30.50;46.00;;;;;;5095867;28;20203;-62
2023/09/06 11:38:09;;;;;;;4.70;2.67;;;30.50;46.50;;;;;;5098337;28;20203;-61
2023/09/06 11:40:37;;;;;;;4.07;2.17;;;30.50;46.70;;;;;;5099664;28;20216;-62
2023/09/06 11:43:08;;;;;;;7.47;3.00;;;30.60;46.40;;;;;;5096398;28;20265;-62
2023/09/06 11:45:35;;;;;;;3.30;2.70;;;30.70;47.30;;;;;;5095024;28;20188;-62
2023/09/06 11:48:08;;;;;;;3.27;2.43;;;30.70;46.20;;;;;;5093881;28;20351;-62
2023/09/06 11:50:38;;;;;;;3.80;2.70;;;30.80;45.80;;;;;;5088786;28;20221;-62
2023/09/06 11:53:09;;;;;;;4.77;2.67;;;30.80;46.70;;;;;;5092935;28;20197;-61
2023/09/06 11:55:41;;;;;;;2.50;2.30;;;30.90;46.30;;;;;;5098922;28;20228;-62
2023/09/06 11:58:20;;;;;;;3.00;2.70;;;30.90;45.80;;;;;;5097201;28;20229;-61
2023/09/06 12:00:50;;;;;;;4.07;2.70;;;30.80;45.40;;;;;;5097965;28;20200;-62
2023/09/06 12:03:26;;;;;;;2.83;2.63;;;30.80;45.70;;;;;;5083011;28;20544;-59
2023/09/06 12:05:56;;;;;;;4.50;2.60;;;30.90;46.30;;;;;;5095548;28;20703;-61
2023/09/06 12:08:23;;;;;;;2.77;2.47;;;31.00;45.60;;;;;;5084884;28;20255;-61
2023/09/06 12:11:05;;;;;;;2.50;2.30;;;31.00;45.60;;;;;;5099584;28;20215;-62
2023/09/06 12:13:35;;;;;;;3.37;2.50;;;31.00;45.30;;;;;;5099517;28;20201;-62
2023/09/06 12:16:08;;;;;;;3.97;2.33;;;31.00;45.60;;;;;;5097401;28;20220;-62
2023/09/06 12:18:37;;;;;;;2.20;2.00;;;31.00;45.20;;;;;;5099628;28;20634;-62
2023/09/06 12:21:05;;;;;;;3.37;2.57;;;30.90;45.90;;;;;;5096580;28;20587;-62
2023/09/06 12:23:34;;;;;;;2.30;2.10;;;30.90;45.00;;;;;;5095562;28;20215;-62
2023/09/06 12:26:05;;;;;;;3.30;2.73;;;30.90;45.50;;;;;;5096791;28;20225;-61
2023/09/06 12:28:32;;;;;;;2.53;2.33;;;30.90;45.90;;;;;;5098792;28;20684;-62
2023/09/06 12:31:03;;;;;;;2.73;2.27;;;30.90;45.30;;;;;;5101994;28;20204;-62
2023/09/06 12:33:45;;;;;;;2.93;2.30;;;31.00;45.40;;;;;;5093531;28;20193;-62
2023/09/06 12:36:14;;;;;;;3.50;2.47;;;31.00;45.10;;;;;;5091754;28;20193;-62
2023/09/06 12:38:42;;;;;;;4.50;2.83;;;30.90;44.90;;;;;;5087025;28;20197;-61
2023/09/06 12:41:09;;;;;;;2.40;2.20;;;30.90;45.00;;;;;;5087567;28;20258;-61
2023/09/06 12:43:37;;;;;;;3.50;2.13;;;31.00;46.00;;;;;;5090786;28;20197;-62
2023/09/06 12:46:07;;;;;;;2.60;2.10;;;31.00;45.40;;;;;;5096289;28;20228;-62
2023/09/06 12:48:35;;;;;;;3.83;2.27;;;31.00;44.90;;;;;;5093981;28;20316;-62
2023/09/06 12:51:05;;;;;;;3.03;2.10;;;31.00;45.10;;;;;;5098589;28;20200;-62
2023/09/06 12:53:32;;;;;;;3.20;2.50;;;31.00;44.80;;;;;;5098245;28;20283;-62
2023/09/06 12:55:59;;;;;;;2.50;2.30;;;31.00;44.80;;;;;;5100867;28;20233;-62